sensor_id;sensor_type;location;lat;lon;timestamp;P1;durP1;ratioP1;P2;durP2;ratioP2
66163;SDS011;52962;51.088;3.096;2022-09-27T00:01:37;2.50;;;0.50;;
66163;SDS011;52962;51.088;3.096;2022-09-27T00:04:06;3.33;;;0.70;;
66163;SDS011;52962;51.088;3.096;2022-09-27T00:06:33;0.77;;;0.50;;
66163;SDS011;52962;51.088;3.096;2022-09-27T00:09:06;2.55;;;0.50;;
66163;SDS011;52962;51.088;3.096;2022-09-27T00:11:35;5.43;;;0.47;;
66163;SDS011;52962;51.088;3.096;2022-09-27T00:14:06;3.58;;;0.40;;
66163;SDS011;52962;51.088;3.096;2022-09-27T00:16:35;0.90;;;0.30;;
66163;SDS011;52962;51.088;3.096;2022-09-27T00:19:05;2.45;;;0.38;;
66163;SDS011;52962;51.088;3.096;2022-09-27T00:21:36;2.20;;;0.20;;
66163;SDS011;52962;51.088;3.096;2022-09-27T00:24:04;2.08;;;0.50;;
66163;SDS011;52962;51.088;3.096;2022-09-27T00:26:32;6.65;;;0.45;;
66163;SDS011;52962;51.088;3.096;2022-09-27T00:29:00;1.17;;;0.32;;
66163;SDS011;52962;51.088;3.096;2022-09-27T00:31:29;4.53;;;0.35;;
66163;SDS011;52962;51.088;3.096;2022-09-27T00:33:58;2.10;;;0.38;;
66163;SDS011;52962;51.088;3.096;2022-09-27T00:36:28;3.88;;;0.50;;
66163;SDS011;52962;51.088;3.096;2022-09-27T00:38:57;2.75;;;0.60;;
66163;SDS011;52962;51.088;3.096;2022-09-27T00:41:26;3.70;;;0.43;;
66163;SDS011;52962;51.088;3.096;2022-09-27T00:43:57;1.08;;;0.50;;
66163;SDS011;52962;51.088;3.096;2022-09-27T00:46:27;4.22;;;0.70;;
66163;SDS011;52962;51.088;3.096;2022-09-27T00:49:04;2.25;;;0.80;;
66163;SDS011;52962;51.088;3.096;2022-09-27T00:51:38;1.23;;;0.43;;
66163;SDS011;52962;51.088;3.096;2022-09-27T00:54:08;2.38;;;0.63;;
66163;SDS011;52962;51.088;3.096;2022-09-27T00:56:39;4.65;;;0.68;;
66163;SDS011;52962;51.088;3.096;2022-09-27T00:59:10;1.05;;;0.60;;
66163;SDS011;52962;51.088;3.096;2022-09-27T01:01:44;4.57;;;0.63;;
66163;SDS011;52962;51.088;3.096;2022-09-27T01:04:12;4.85;;;1.05;;
66163;SDS011;52962;51.088;3.096;2022-09-27T01:06:43;0.80;;;0.60;;
66163;SDS011;52962;51.088;3.096;2022-09-27T01:09:11;2.05;;;0.45;;
66163;SDS011;52962;51.088;3.096;2022-09-27T01:11:40;2.80;;;0.40;;
66163;SDS011;52962;51.088;3.096;2022-09-27T01:14:23;2.47;;;0.73;;
66163;SDS011;52962;51.088;3.096;2022-09-27T01:17:09;3.05;;;0.52;;
66163;SDS011;52962;51.088;3.096;2022-09-27T01:20:01;2.53;;;0.75;;
66163;SDS011;52962;51.088;3.096;2022-09-27T01:23:00;3.50;;;0.77;;
66163;SDS011;52962;51.088;3.096;2022-09-27T01:25:47;0.93;;;0.50;;
66163;SDS011;52962;51.088;3.096;2022-09-27T01:28:27;2.28;;;0.50;;
66163;SDS011;52962;51.088;3.096;2022-09-27T01:31:14;1.85;;;0.60;;
66163;SDS011;52962;51.088;3.096;2022-09-27T01:33:49;1.75;;;0.47;;
66163;SDS011;52962;51.088;3.096;2022-09-27T01:36:28;1.48;;;0.50;;
66163;SDS011;52962;51.088;3.096;2022-09-27T01:39:07;0.60;;;0.40;;
66163;SDS011;52962;51.088;3.096;2022-09-27T01:41:50;2.88;;;0.47;;
66163;SDS011;52962;51.088;3.096;2022-09-27T01:44:25;3.20;;;0.45;;
66163;SDS011;52962;51.088;3.096;2022-09-27T01:47:00;1.25;;;0.60;;
66163;SDS011;52962;51.088;3.096;2022-09-27T01:49:32;4.78;;;0.50;;
66163;SDS011;52962;51.088;3.096;2022-09-27T01:52:06;1.58;;;0.47;;
66163;SDS011;52962;51.088;3.096;2022-09-27T01:54:38;5.32;;;0.70;;
66163;SDS011;52962;51.088;3.096;2022-09-27T01:57:10;1.08;;;0.40;;
66163;SDS011;52962;51.088;3.096;2022-09-27T01:59:44;1.67;;;0.50;;
66163;SDS011;52962;51.088;3.096;2022-09-27T02:02:17;2.53;;;0.45;;
66163;SDS011;52962;51.088;3.096;2022-09-27T02:04:50;1.00;;;0.38;;
66163;SDS011;52962;51.088;3.096;2022-09-27T02:07:25;1.30;;;0.30;;
66163;SDS011;52962;51.088;3.096;2022-09-27T02:09:58;6.28;;;0.60;;
66163;SDS011;52962;51.088;3.096;2022-09-27T02:12:30;3.00;;;0.50;;
66163;SDS011;52962;51.088;3.096;2022-09-27T02:15:04;3.63;;;0.57;;
66163;SDS011;52962;51.088;3.096;2022-09-27T02:17:39;4.40;;;0.73;;
66163;SDS011;52962;51.088;3.096;2022-09-27T02:22:43;0.57;;;0.40;;
66163;SDS011;52962;51.088;3.096;2022-09-27T02:25:17;2.55;;;0.50;;
66163;SDS011;52962;51.088;3.096;2022-09-27T02:27:50;0.93;;;0.60;;
66163;SDS011;52962;51.088;3.096;2022-09-27T02:30:25;3.53;;;0.47;;
66163;SDS011;52962;51.088;3.096;2022-09-27T02:35:24;1.58;;;0.63;;
66163;SDS011;52962;51.088;3.096;2022-09-27T02:37:55;1.48;;;0.85;;
66163;SDS011;52962;51.088;3.096;2022-09-27T02:40:25;5.88;;;0.65;;
66163;SDS011;52962;51.088;3.096;2022-09-27T02:42:58;2.33;;;0.60;;
66163;SDS011;52962;51.088;3.096;2022-09-27T02:45:27;3.60;;;0.98;;
66163;SDS011;52962;51.088;3.096;2022-09-27T02:48:06;1.98;;;0.40;;
66163;SDS011;52962;51.088;3.096;2022-09-27T02:50:44;2.83;;;0.30;;
66163;SDS011;52962;51.088;3.096;2022-09-27T02:56:00;1.13;;;0.43;;
66163;SDS011;52962;51.088;3.096;2022-09-27T02:58:36;2.15;;;0.82;;
66163;SDS011;52962;51.088;3.096;2022-09-27T03:01:16;0.65;;;0.20;;
66163;SDS011;52962;51.088;3.096;2022-09-27T03:03:51;3.22;;;0.40;;
66163;SDS011;52962;51.088;3.096;2022-09-27T03:06:25;0.63;;;0.20;;
66163;SDS011;52962;51.088;3.096;2022-09-27T03:08:55;0.50;;;0.30;;
66163;SDS011;52962;51.088;3.096;2022-09-27T03:11:23;0.40;;;0.40;;
66163;SDS011;52962;51.088;3.096;2022-09-27T03:13:51;0.60;;;0.50;;
66163;SDS011;52962;51.088;3.096;2022-09-27T03:16:34;0.40;;;0.40;;
66163;SDS011;52962;51.088;3.096;2022-09-27T03:19:03;0.90;;;0.90;;
66163;SDS011;52962;51.088;3.096;2022-09-27T03:21:31;0.30;;;0.30;;
66163;SDS011;52962;51.088;3.096;2022-09-27T03:24:00;0.77;;;0.57;;
66163;SDS011;52962;51.088;3.096;2022-09-27T03:26:28;5.72;;;1.08;;
66163;SDS011;52962;51.088;3.096;2022-09-27T03:28:56;1.52;;;0.50;;
66163;SDS011;52962;51.088;3.096;2022-09-27T03:31:24;2.22;;;0.80;;
66163;SDS011;52962;51.088;3.096;2022-09-27T03:33:52;3.03;;;0.50;;
66163;SDS011;52962;51.088;3.096;2022-09-27T03:36:21;1.45;;;0.50;;
66163;SDS011;52962;51.088;3.096;2022-09-27T03:38:49;2.25;;;0.80;;
66163;SDS011;52962;51.088;3.096;2022-09-27T03:41:16;1.13;;;1.08;;
66163;SDS011;52962;51.088;3.096;2022-09-27T03:43:44;1.90;;;0.68;;
66163;SDS011;52962;51.088;3.096;2022-09-27T03:46:12;1.77;;;0.50;;
66163;SDS011;52962;51.088;3.096;2022-09-27T03:48:40;1.00;;;0.50;;
66163;SDS011;52962;51.088;3.096;2022-09-27T03:51:08;0.30;;;0.30;;
66163;SDS011;52962;51.088;3.096;2022-09-27T03:53:38;3.30;;;0.65;;
66163;SDS011;52962;51.088;3.096;2022-09-27T03:56:08;2.00;;;0.60;;
66163;SDS011;52962;51.088;3.096;2022-09-27T04:06:00;0.40;;;0.28;;
66163;SDS011;52962;51.088;3.096;2022-09-27T04:08:28;0.35;;;0.20;;
66163;SDS011;52962;51.088;3.096;2022-09-27T04:10:57;0.85;;;0.57;;
66163;SDS011;52962;51.088;3.096;2022-09-27T04:13:25;1.38;;;0.35;;
66163;SDS011;52962;51.088;3.096;2022-09-27T04:15:53;1.85;;;0.40;;
66163;SDS011;52962;51.088;3.096;2022-09-27T04:18:21;1.95;;;0.45;;
66163;SDS011;52962;51.088;3.096;2022-09-27T04:20:49;0.38;;;0.32;;
66163;SDS011;52962;51.088;3.096;2022-09-27T04:23:16;1.25;;;0.35;;
66163;SDS011;52962;51.088;3.096;2022-09-27T04:25:45;1.20;;;0.40;;
66163;SDS011;52962;51.088;3.096;2022-09-27T04:28:15;1.80;;;0.40;;
66163;SDS011;52962;51.088;3.096;2022-09-27T04:30:44;1.70;;;0.30;;
66163;SDS011;52962;51.088;3.096;2022-09-27T04:33:12;1.23;;;0.57;;
66163;SDS011;52962;51.088;3.096;2022-09-27T04:35:41;1.83;;;0.50;;
66163;SDS011;52962;51.088;3.096;2022-09-27T04:38:26;1.13;;;0.50;;
66163;SDS011;52962;51.088;3.096;2022-09-27T04:40:54;1.27;;;0.40;;
66163;SDS011;52962;51.088;3.096;2022-09-27T04:43:24;1.48;;;0.50;;
66163;SDS011;52962;51.088;3.096;2022-09-27T04:45:52;2.50;;;0.50;;
66163;SDS011;52962;51.088;3.096;2022-09-27T04:48:20;1.77;;;0.50;;
66163;SDS011;52962;51.088;3.096;2022-09-27T04:53:22;1.98;;;0.43;;
66163;SDS011;52962;51.088;3.096;2022-09-27T04:55:51;1.35;;;0.47;;
66163;SDS011;52962;51.088;3.096;2022-09-27T04:58:19;1.63;;;0.90;;
66163;SDS011;52962;51.088;3.096;2022-09-27T05:00:49;3.05;;;0.70;;
66163;SDS011;52962;51.088;3.096;2022-09-27T05:03:21;2.78;;;0.50;;
66163;SDS011;52962;51.088;3.096;2022-09-27T05:05:49;5.43;;;0.82;;
66163;SDS011;52962;51.088;3.096;2022-09-27T05:08:16;1.33;;;0.75;;
66163;SDS011;52962;51.088;3.096;2022-09-27T05:10:44;1.95;;;0.70;;
66163;SDS011;52962;51.088;3.096;2022-09-27T05:13:12;1.05;;;0.50;;
66163;SDS011;52962;51.088;3.096;2022-09-27T05:15:41;2.63;;;0.45;;
66163;SDS011;52962;51.088;3.096;2022-09-27T05:18:10;2.85;;;0.43;;
66163;SDS011;52962;51.088;3.096;2022-09-27T05:20:38;2.90;;;0.30;;
66163;SDS011;52962;51.088;3.096;2022-09-27T05:23:07;2.92;;;0.32;;
66163;SDS011;52962;51.088;3.096;2022-09-27T05:25:35;1.17;;;0.32;;
66163;SDS011;52962;51.088;3.096;2022-09-27T05:28:03;1.38;;;0.50;;
66163;SDS011;52962;51.088;3.096;2022-09-27T05:30:31;1.10;;;0.20;;
66163;SDS011;52962;51.088;3.096;2022-09-27T05:33:00;0.93;;;0.30;;
66163;SDS011;52962;51.088;3.096;2022-09-27T05:35:30;1.27;;;0.20;;
66163;SDS011;52962;51.088;3.096;2022-09-27T05:37:59;2.35;;;0.30;;
66163;SDS011;52962;51.088;3.096;2022-09-27T05:40:27;1.58;;;0.40;;
66163;SDS011;52962;51.088;3.096;2022-09-27T05:43:07;1.15;;;0.35;;
66163;SDS011;52962;51.088;3.096;2022-09-27T05:45:35;0.45;;;0.22;;
66163;SDS011;52962;51.088;3.096;2022-09-27T05:48:03;0.57;;;0.30;;
66163;SDS011;52962;51.088;3.096;2022-09-27T05:50:32;2.00;;;0.40;;
66163;SDS011;52962;51.088;3.096;2022-09-27T05:53:00;0.20;;;0.20;;
66163;SDS011;52962;51.088;3.096;2022-09-27T05:55:28;0.52;;;0.20;;
66163;SDS011;52962;51.088;3.096;2022-09-27T05:57:57;1.85;;;0.20;;
66163;SDS011;52962;51.088;3.096;2022-09-27T06:00:26;0.68;;;0.30;;
66163;SDS011;52962;51.088;3.096;2022-09-27T06:02:56;0.55;;;0.30;;
66163;SDS011;52962;51.088;3.096;2022-09-27T06:05:27;0.10;;;0.10;;
66163;SDS011;52962;51.088;3.096;2022-09-27T06:07:58;1.58;;;0.40;;
66163;SDS011;52962;51.088;3.096;2022-09-27T06:10:27;3.83;;;0.40;;
66163;SDS011;52962;51.088;3.096;2022-09-27T06:12:59;0.68;;;0.40;;
66163;SDS011;52962;51.088;3.096;2022-09-27T06:15:28;2.25;;;0.35;;
66163;SDS011;52962;51.088;3.096;2022-09-27T06:18:01;0.20;;;0.20;;
66163;SDS011;52962;51.088;3.096;2022-09-27T06:20:30;2.97;;;0.50;;
66163;SDS011;52962;51.088;3.096;2022-09-27T06:23:07;2.15;;;0.40;;
66163;SDS011;52962;51.088;3.096;2022-09-27T06:25:36;0.43;;;0.20;;
66163;SDS011;52962;51.088;3.096;2022-09-27T06:28:05;1.45;;;0.60;;
66163;SDS011;52962;51.088;3.096;2022-09-27T06:30:36;1.58;;;0.85;;
66163;SDS011;52962;51.088;3.096;2022-09-27T06:33:05;1.13;;;0.50;;
66163;SDS011;52962;51.088;3.096;2022-09-27T06:35:34;1.50;;;0.60;;
66163;SDS011;52962;51.088;3.096;2022-09-27T06:38:02;2.05;;;0.50;;
66163;SDS011;52962;51.088;3.096;2022-09-27T06:40:33;1.98;;;0.40;;
66163;SDS011;52962;51.088;3.096;2022-09-27T06:43:02;1.73;;;0.40;;
66163;SDS011;52962;51.088;3.096;2022-09-27T06:45:31;0.40;;;0.40;;
66163;SDS011;52962;51.088;3.096;2022-09-27T06:48:00;2.58;;;0.50;;
66163;SDS011;52962;51.088;3.096;2022-09-27T06:50:28;2.10;;;0.70;;
66163;SDS011;52962;51.088;3.096;2022-09-27T06:52:58;6.13;;;1.10;;
66163;SDS011;52962;51.088;3.096;2022-09-27T06:55:26;3.45;;;0.80;;
66163;SDS011;52962;51.088;3.096;2022-09-27T06:57:55;1.90;;;0.60;;
66163;SDS011;52962;51.088;3.096;2022-09-27T07:03:11;1.80;;;0.40;;
66163;SDS011;52962;51.088;3.096;2022-09-27T07:05:39;1.73;;;0.47;;
66163;SDS011;52962;51.088;3.096;2022-09-27T07:08:09;3.25;;;0.38;;
66163;SDS011;52962;51.088;3.096;2022-09-27T07:10:38;1.58;;;0.50;;
66163;SDS011;52962;51.088;3.096;2022-09-27T07:13:09;7.63;;;0.55;;
66163;SDS011;52962;51.088;3.096;2022-09-27T07:15:39;3.03;;;0.70;;
66163;SDS011;52962;51.088;3.096;2022-09-27T07:18:07;2.25;;;0.77;;
66163;SDS011;52962;51.088;3.096;2022-09-27T07:20:35;2.08;;;0.52;;
66163;SDS011;52962;51.088;3.096;2022-09-27T07:23:03;2.22;;;0.28;;
66163;SDS011;52962;51.088;3.096;2022-09-27T07:25:32;4.43;;;0.80;;
66163;SDS011;52962;51.088;3.096;2022-09-27T07:28:01;10.15;;;2.83;;
66163;SDS011;52962;51.088;3.096;2022-09-27T07:30:31;4.70;;;1.33;;
66163;SDS011;52962;51.088;3.096;2022-09-27T07:33:00;3.55;;;1.15;;
66163;SDS011;52962;51.088;3.096;2022-09-27T07:35:29;5.18;;;1.77;;
66163;SDS011;52962;51.088;3.096;2022-09-27T07:37:57;5.78;;;1.85;;
66163;SDS011;52962;51.088;3.096;2022-09-27T07:40:25;1.40;;;0.63;;
66163;SDS011;52962;51.088;3.096;2022-09-27T07:42:54;3.38;;;0.80;;
66163;SDS011;52962;51.088;3.096;2022-09-27T07:45:22;6.10;;;1.75;;
66163;SDS011;52962;51.088;3.096;2022-09-27T07:47:52;3.60;;;1.15;;
66163;SDS011;52962;51.088;3.096;2022-09-27T07:50:20;2.97;;;0.80;;
66163;SDS011;52962;51.088;3.096;2022-09-27T07:52:48;5.22;;;1.10;;
66163;SDS011;52962;51.088;3.096;2022-09-27T07:55:17;1.88;;;0.50;;
66163;SDS011;52962;51.088;3.096;2022-09-27T07:57:46;3.35;;;1.48;;
66163;SDS011;52962;51.088;3.096;2022-09-27T08:00:14;4.25;;;1.05;;
66163;SDS011;52962;51.088;3.096;2022-09-27T08:02:44;2.97;;;1.00;;
66163;SDS011;52962;51.088;3.096;2022-09-27T08:05:14;5.07;;;0.80;;
66163;SDS011;52962;51.088;3.096;2022-09-27T08:07:42;2.17;;;1.13;;
66163;SDS011;52962;51.088;3.096;2022-09-27T08:10:10;6.57;;;1.08;;
66163;SDS011;52962;51.088;3.096;2022-09-27T08:12:38;2.88;;;0.50;;
66163;SDS011;52962;51.088;3.096;2022-09-27T08:15:06;2.15;;;0.60;;
66163;SDS011;52962;51.088;3.096;2022-09-27T08:17:35;5.53;;;0.50;;
66163;SDS011;52962;51.088;3.096;2022-09-27T08:20:03;1.02;;;0.40;;
66163;SDS011;52962;51.088;3.096;2022-09-27T08:22:34;2.13;;;0.63;;
66163;SDS011;52962;51.088;3.096;2022-09-27T08:25:06;3.75;;;0.55;;
66163;SDS011;52962;51.088;3.096;2022-09-27T08:27:36;1.55;;;0.80;;
66163;SDS011;52962;51.088;3.096;2022-09-27T08:30:04;1.38;;;0.40;;
66163;SDS011;52962;51.088;3.096;2022-09-27T08:32:32;2.13;;;0.80;;
66163;SDS011;52962;51.088;3.096;2022-09-27T08:35:02;3.50;;;0.70;;
66163;SDS011;52962;51.088;3.096;2022-09-27T08:37:33;3.28;;;0.30;;
66163;SDS011;52962;51.088;3.096;2022-09-27T08:40:02;4.07;;;1.15;;
66163;SDS011;52962;51.088;3.096;2022-09-27T08:42:33;4.80;;;0.50;;
66163;SDS011;52962;51.088;3.096;2022-09-27T08:45:10;3.22;;;0.50;;
66163;SDS011;52962;51.088;3.096;2022-09-27T08:47:43;1.65;;;0.47;;
66163;SDS011;52962;51.088;3.096;2022-09-27T08:50:18;6.43;;;0.60;;
66163;SDS011;52962;51.088;3.096;2022-09-27T08:52:52;3.58;;;0.60;;
66163;SDS011;52962;51.088;3.096;2022-09-27T08:55:25;2.03;;;0.52;;
66163;SDS011;52962;51.088;3.096;2022-09-27T08:57:58;1.90;;;0.50;;
66163;SDS011;52962;51.088;3.096;2022-09-27T09:02:55;2.53;;;0.30;;
66163;SDS011;52962;51.088;3.096;2022-09-27T09:05:26;3.53;;;0.45;;
66163;SDS011;52962;51.088;3.096;2022-09-27T09:08:02;1.23;;;0.50;;
66163;SDS011;52962;51.088;3.096;2022-09-27T09:10:48;1.40;;;0.70;;
66163;SDS011;52962;51.088;3.096;2022-09-27T09:13:43;2.20;;;0.25;;
66163;SDS011;52962;51.088;3.096;2022-09-27T09:16:26;0.77;;;0.30;;
66163;SDS011;52962;51.088;3.096;2022-09-27T09:19:06;1.88;;;0.30;;
66163;SDS011;52962;51.088;3.096;2022-09-27T09:21:53;2.63;;;0.30;;
66163;SDS011;52962;51.088;3.096;2022-09-27T09:24:36;1.60;;;0.60;;
66163;SDS011;52962;51.088;3.096;2022-09-27T09:27:15;1.60;;;0.30;;
66163;SDS011;52962;51.088;3.096;2022-09-27T09:29:55;2.83;;;0.50;;
66163;SDS011;52962;51.088;3.096;2022-09-27T09:32:34;0.82;;;0.50;;
66163;SDS011;52962;51.088;3.096;2022-09-27T09:35:11;2.05;;;0.40;;
66163;SDS011;52962;51.088;3.096;2022-09-27T09:37:43;2.92;;;0.47;;
66163;SDS011;52962;51.088;3.096;2022-09-27T09:40:18;3.25;;;0.70;;
66163;SDS011;52962;51.088;3.096;2022-09-27T09:42:51;1.75;;;0.40;;
66163;SDS011;52962;51.088;3.096;2022-09-27T09:45:24;2.58;;;0.90;;
66163;SDS011;52962;51.088;3.096;2022-09-27T09:47:57;0.65;;;0.50;;
66163;SDS011;52962;51.088;3.096;2022-09-27T09:50:29;3.92;;;0.50;;
66163;SDS011;52962;51.088;3.096;2022-09-27T09:53:02;85.22;;;78.60;;
66163;SDS011;52962;51.088;3.096;2022-09-27T09:55:39;1.85;;;0.20;;
66163;SDS011;52962;51.088;3.096;2022-09-27T09:58:14;0.25;;;0.10;;
66163;SDS011;52962;51.088;3.096;2022-09-27T10:00:48;4.47;;;4.15;;
66163;SDS011;52962;51.088;3.096;2022-09-27T10:03:19;1999.90;;;999.90;;
66163;SDS011;52962;51.088;3.096;2022-09-27T10:05:47;22.23;;;21.42;;
66163;SDS011;52962;51.088;3.096;2022-09-27T10:08:16;146.32;;;139.57;;
66163;SDS011;52962;51.088;3.096;2022-09-27T10:10:47;1999.90;;;999.90;;
66163;SDS011;52962;51.088;3.096;2022-09-27T10:13:16;1999.90;;;999.90;;
66163;SDS011;52962;51.088;3.096;2022-09-27T10:15:46;2.55;;;0.60;;
66163;SDS011;52962;51.088;3.096;2022-09-27T10:18:20;0.30;;;0.30;;
66163;SDS011;52962;51.088;3.096;2022-09-27T10:23:19;3.45;;;0.60;;
66163;SDS011;52962;51.088;3.096;2022-09-27T10:25:52;1.52;;;0.95;;
66163;SDS011;52962;51.088;3.096;2022-09-27T10:28:32;6.80;;;2.00;;
66163;SDS011;52962;51.088;3.096;2022-09-27T10:31:03;10.07;;;3.22;;
66163;SDS011;52962;51.088;3.096;2022-09-27T10:33:33;2.30;;;1.60;;
66163;SDS011;52962;51.088;3.096;2022-09-27T10:36:20;9.45;;;8.98;;
66163;SDS011;52962;51.088;3.096;2022-09-27T10:38:51;100.63;;;96.18;;
66163;SDS011;52962;51.088;3.096;2022-09-27T10:41:23;217.48;;;208.00;;
66163;SDS011;52962;51.088;3.096;2022-09-27T10:43:53;160.82;;;153.55;;
66163;SDS011;52962;51.088;3.096;2022-09-27T10:46:23;130.90;;;125.10;;
66163;SDS011;52962;51.088;3.096;2022-09-27T10:49:09;5.93;;;5.72;;
66163;SDS011;52962;51.088;3.096;2022-09-27T10:51:42;1.75;;;0.70;;
66163;SDS011;52962;51.088;3.096;2022-09-27T10:54:20;7.47;;;0.60;;
66163;SDS011;52962;51.088;3.096;2022-09-27T10:56:54;7.13;;;0.80;;
66163;SDS011;52962;51.088;3.096;2022-09-27T10:59:25;2.00;;;0.60;;
66163;SDS011;52962;51.088;3.096;2022-09-27T11:01:56;6.15;;;1.00;;
66163;SDS011;52962;51.088;3.096;2022-09-27T11:04:27;2.47;;;0.82;;
66163;SDS011;52962;51.088;3.096;2022-09-27T11:07:13;1.27;;;0.30;;
66163;SDS011;52962;51.088;3.096;2022-09-27T11:09:44;0.52;;;0.40;;
66163;SDS011;52962;51.088;3.096;2022-09-27T11:12:15;3.53;;;0.60;;
66163;SDS011;52962;51.088;3.096;2022-09-27T11:14:50;0.35;;;0.30;;
66163;SDS011;52962;51.088;3.096;2022-09-27T11:17:23;1.20;;;0.35;;
66163;SDS011;52962;51.088;3.096;2022-09-27T11:20:02;1.02;;;0.60;;
66163;SDS011;52962;51.088;3.096;2022-09-27T11:26:05;1.42;;;0.57;;
66163;SDS011;52962;51.088;3.096;2022-09-27T11:28:52;0.80;;;0.20;;
66163;SDS011;52962;51.088;3.096;2022-09-27T11:31:29;0.82;;;0.52;;
66163;SDS011;52962;51.088;3.096;2022-09-27T11:34:07;1.25;;;0.75;;
66163;SDS011;52962;51.088;3.096;2022-09-27T11:36:48;1.38;;;0.30;;
66163;SDS011;52962;51.088;3.096;2022-09-27T11:39:26;2.85;;;0.43;;
66163;SDS011;52962;51.088;3.096;2022-09-27T11:42:05;0.73;;;0.40;;
66163;SDS011;52962;51.088;3.096;2022-09-27T11:44:55;0.65;;;0.40;;
66163;SDS011;52962;51.088;3.096;2022-09-27T11:47:58;2.08;;;0.38;;
66163;SDS011;52962;51.088;3.096;2022-09-27T11:50:48;0.30;;;0.20;;
66163;SDS011;52962;51.088;3.096;2022-09-27T11:56:18;2.35;;;0.55;;
66163;SDS011;52962;51.088;3.096;2022-09-27T11:58:59;1.75;;;0.03;;
66163;SDS011;52962;51.088;3.096;2022-09-27T12:04:28;0.17;;;0.17;;
66163;SDS011;52962;51.088;3.096;2022-09-27T12:07:24;1.42;;;0.45;;
66163;SDS011;52962;51.088;3.096;2022-09-27T12:10:02;0.43;;;0.43;;
66163;SDS011;52962;51.088;3.096;2022-09-27T12:12:35;0.10;;;0.10;;
66163;SDS011;52962;51.088;3.096;2022-09-27T12:15:12;0.55;;;0.03;;
66163;SDS011;52962;51.088;3.096;2022-09-27T12:17:45;0.35;;;0.17;;
66163;SDS011;52962;51.088;3.096;2022-09-27T12:20:18;0.10;;;0.10;;
66163;SDS011;52962;51.088;3.096;2022-09-27T12:22:51;0.30;;;0.20;;
66163;SDS011;52962;51.088;3.096;2022-09-27T12:25:25;2.15;;;0.20;;
66163;SDS011;52962;51.088;3.096;2022-09-27T12:27:57;3.35;;;0.45;;
66163;SDS011;52962;51.088;3.096;2022-09-27T12:30:30;1.45;;;0.17;;
66163;SDS011;52962;51.088;3.096;2022-09-27T12:33:07;4.25;;;0.47;;
66163;SDS011;52962;51.088;3.096;2022-09-27T12:35:53;2.10;;;0.30;;
66163;SDS011;52962;51.088;3.096;2022-09-27T12:38:34;1.33;;;0.30;;
66163;SDS011;52962;51.088;3.096;2022-09-27T12:41:06;2.10;;;0.40;;
66163;SDS011;52962;51.088;3.096;2022-09-27T12:43:39;1.65;;;0.20;;
66163;SDS011;52962;51.088;3.096;2022-09-27T12:46:16;3.92;;;0.40;;
66163;SDS011;52962;51.088;3.096;2022-09-27T12:48:53;1.45;;;0.22;;
66163;SDS011;52962;51.088;3.096;2022-09-27T12:51:31;0.30;;;0.10;;
66163;SDS011;52962;51.088;3.096;2022-09-27T12:54:08;2.65;;;0.30;;
66163;SDS011;52962;51.088;3.096;2022-09-27T12:56:52;0.55;;;0.43;;
66163;SDS011;52962;51.088;3.096;2022-09-27T12:59:45;4.28;;;0.60;;
66163;SDS011;52962;51.088;3.096;2022-09-27T13:02:30;0.50;;;0.50;;
66163;SDS011;52962;51.088;3.096;2022-09-27T13:08:43;15.55;;;1.05;;
66163;SDS011;52962;51.088;3.096;2022-09-27T13:11:28;1999.90;;;999.90;;
66163;SDS011;52962;51.088;3.096;2022-09-27T13:14:09;1999.90;;;999.90;;
66163;SDS011;52962;51.088;3.096;2022-09-27T13:16:45;1999.90;;;999.90;;
66163;SDS011;52962;51.088;3.096;2022-09-27T13:22:07;1999.90;;;999.90;;
66163;SDS011;52962;51.088;3.096;2022-09-27T13:24:40;1999.90;;;999.90;;
66163;SDS011;52962;51.088;3.096;2022-09-27T13:33:32;4.53;;;0.75;;
66163;SDS011;52962;51.088;3.096;2022-09-27T13:36:19;2.83;;;0.50;;
66163;SDS011;52962;51.088;3.096;2022-09-27T13:38:58;0.40;;;0.40;;
66163;SDS011;52962;51.088;3.096;2022-09-27T13:41:34;1.40;;;0.75;;
66163;SDS011;52962;51.088;3.096;2022-09-27T13:44:22;0.40;;;0.30;;
66163;SDS011;52962;51.088;3.096;2022-09-27T13:46:57;1.10;;;0.28;;
66163;SDS011;52962;51.088;3.096;2022-09-27T13:49:29;0.40;;;0.20;;
66163;SDS011;52962;51.088;3.096;2022-09-27T13:52:00;0.20;;;0.20;;
66163;SDS011;52962;51.088;3.096;2022-09-27T13:54:37;0.20;;;0.20;;
66163;SDS011;52962;51.088;3.096;2022-09-27T14:00:09;0.60;;;0.10;;
66163;SDS011;52962;51.088;3.096;2022-09-27T14:02:42;1.27;;;0.28;;
66163;SDS011;52962;51.088;3.096;2022-09-27T14:05:19;4.05;;;0.30;;
66163;SDS011;52962;51.088;3.096;2022-09-27T14:10:23;0.40;;;0.15;;
66163;SDS011;52962;51.088;3.096;2022-09-27T14:12:52;2.33;;;0.20;;
66163;SDS011;52962;51.088;3.096;2022-09-27T14:17:51;3.88;;;0.85;;
66163;SDS011;52962;51.088;3.096;2022-09-27T14:20:29;1.17;;;0.80;;
66163;SDS011;52962;51.088;3.096;2022-09-27T14:22:58;0.15;;;0.15;;
66163;SDS011;52962;51.088;3.096;2022-09-27T14:25:29;1.23;;;0.28;;
66163;SDS011;52962;51.088;3.096;2022-09-27T14:27:57;8.15;;;3.17;;
66163;SDS011;52962;51.088;3.096;2022-09-27T14:30:27;2.80;;;1.27;;
66163;SDS011;52962;51.088;3.096;2022-09-27T14:32:56;1.42;;;0.38;;
66163;SDS011;52962;51.088;3.096;2022-09-27T14:35:26;2.92;;;0.47;;
66163;SDS011;52962;51.088;3.096;2022-09-27T14:38:13;2.00;;;0.35;;
66163;SDS011;52962;51.088;3.096;2022-09-27T14:41:05;3.17;;;0.93;;
66163;SDS011;52962;51.088;3.096;2022-09-27T14:43:35;4.07;;;0.90;;
66163;SDS011;52962;51.088;3.096;2022-09-27T14:46:20;0.70;;;0.60;;
66163;SDS011;52962;51.088;3.096;2022-09-27T14:48:52;0.68;;;0.55;;
66163;SDS011;52962;51.088;3.096;2022-09-27T14:51:25;1.38;;;0.90;;
66163;SDS011;52962;51.088;3.096;2022-09-27T14:53:55;2.03;;;0.68;;
66163;SDS011;52962;51.088;3.096;2022-09-27T14:56:28;2.08;;;0.57;;
66163;SDS011;52962;51.088;3.096;2022-09-27T14:59:01;1.77;;;0.70;;
66163;SDS011;52962;51.088;3.096;2022-09-27T15:01:31;2.55;;;0.68;;
66163;SDS011;52962;51.088;3.096;2022-09-27T15:04:02;1.92;;;0.40;;
66163;SDS011;52962;51.088;3.096;2022-09-27T15:06:32;0.82;;;0.60;;
66163;SDS011;52962;51.088;3.096;2022-09-27T15:09:02;4.32;;;0.55;;
66163;SDS011;52962;51.088;3.096;2022-09-27T15:11:33;1.85;;;0.70;;
66163;SDS011;52962;51.088;3.096;2022-09-27T15:14:02;3.10;;;0.77;;
66163;SDS011;52962;51.088;3.096;2022-09-27T15:16:32;4.40;;;1.45;;
66163;SDS011;52962;51.088;3.096;2022-09-27T15:19:01;1.70;;;0.68;;
66163;SDS011;52962;51.088;3.096;2022-09-27T15:21:33;0.77;;;0.77;;
66163;SDS011;52962;51.088;3.096;2022-09-27T15:24:03;2.63;;;0.68;;
66163;SDS011;52962;51.088;3.096;2022-09-27T15:26:36;1.38;;;0.68;;
66163;SDS011;52962;51.088;3.096;2022-09-27T15:29:15;0.88;;;0.40;;
66163;SDS011;52962;51.088;3.096;2022-09-27T15:31:56;2.28;;;0.30;;
66163;SDS011;52962;51.088;3.096;2022-09-27T15:34:26;3.05;;;2.08;;
66163;SDS011;52962;51.088;3.096;2022-09-27T15:36:55;7.88;;;2.45;;
66163;SDS011;52962;51.088;3.096;2022-09-27T15:39:27;0.75;;;0.47;;
66163;SDS011;52962;51.088;3.096;2022-09-27T15:42:03;0.65;;;0.43;;
66163;SDS011;52962;51.088;3.096;2022-09-27T15:44:36;3.25;;;0.43;;
66163;SDS011;52962;51.088;3.096;2022-09-27T15:52:59;0.40;;;0.30;;
66163;SDS011;52962;51.088;3.096;2022-09-27T15:55:28;1.42;;;0.52;;
66163;SDS011;52962;51.088;3.096;2022-09-27T16:00:27;4.10;;;1.42;;
66163;SDS011;52962;51.088;3.096;2022-09-27T16:02:56;1.88;;;0.52;;
66163;SDS011;52962;51.088;3.096;2022-09-27T16:05:24;1.13;;;0.50;;
66163;SDS011;52962;51.088;3.096;2022-09-27T16:07:55;1.17;;;0.40;;
66163;SDS011;52962;51.088;3.096;2022-09-27T16:10:25;1.77;;;0.60;;
66163;SDS011;52962;51.088;3.096;2022-09-27T16:12:56;1.85;;;0.82;;
66163;SDS011;52962;51.088;3.096;2022-09-27T16:15:25;3.85;;;2.22;;
66163;SDS011;52962;51.088;3.096;2022-09-27T16:17:53;5.32;;;2.55;;
66163;SDS011;52962;51.088;3.096;2022-09-27T16:20:23;6.85;;;3.17;;
66163;SDS011;52962;51.088;3.096;2022-09-27T16:22:53;6.30;;;2.20;;